sensor_id;sensor_type;location;lat;lon;timestamp;P1;durP1;ratioP1;P2;durP2;ratioP2
42704;SDS011;28342;42.594;23.414;2023-05-17T00:01:22;10.45;;;4.05;;
42704;SDS011;28342;42.594;23.414;2023-05-17T00:03:47;10.70;;;4.25;;
42704;SDS011;28342;42.594;23.414;2023-05-17T00:06:13;9.55;;;4.70;;
42704;SDS011;28342;42.594;23.414;2023-05-17T00:08:38;14.15;;;4.60;;
42704;SDS011;28342;42.594;23.414;2023-05-17T00:11:03;7.72;;;4.35;;
42704;SDS011;28342;42.594;23.414;2023-05-17T00:13:29;12.23;;;3.78;;
42704;SDS011;28342;42.594;23.414;2023-05-17T00:15:54;13.23;;;4.78;;
42704;SDS011;28342;42.594;23.414;2023-05-17T00:18:20;12.30;;;3.50;;
42704;SDS011;28342;42.594;23.414;2023-05-17T00:20:45;17.15;;;3.88;;
42704;SDS011;28342;42.594;23.414;2023-05-17T00:23:11;10.55;;;4.00;;
42704;SDS011;28342;42.594;23.414;2023-05-17T00:25:36;10.23;;;4.10;;
42704;SDS011;28342;42.594;23.414;2023-05-17T00:28:01;13.10;;;3.95;;
42704;SDS011;28342;42.594;23.414;2023-05-17T00:30:27;11.93;;;4.15;;
42704;SDS011;28342;42.594;23.414;2023-05-17T00:32:52;11.32;;;4.05;;
42704;SDS011;28342;42.594;23.414;2023-05-17T00:35:17;13.93;;;3.83;;
42704;SDS011;28342;42.594;23.414;2023-05-17T00:37:43;11.73;;;4.60;;
42704;SDS011;28342;42.594;23.414;2023-05-17T00:40:12;12.38;;;4.03;;
42704;SDS011;28342;42.594;23.414;2023-05-17T00:42:40;10.38;;;3.88;;
42704;SDS011;28342;42.594;23.414;2023-05-17T00:45:06;13.90;;;4.20;;
42704;SDS011;28342;42.594;23.414;2023-05-17T00:47:32;15.27;;;4.05;;
42704;SDS011;28342;42.594;23.414;2023-05-17T00:49:57;5.55;;;3.25;;
42704;SDS011;28342;42.594;23.414;2023-05-17T00:52:23;12.40;;;2.95;;
42704;SDS011;28342;42.594;23.414;2023-05-17T00:54:48;5.18;;;2.78;;
42704;SDS011;28342;42.594;23.414;2023-05-17T00:57:15;9.23;;;3.63;;
42704;SDS011;28342;42.594;23.414;2023-05-17T00:59:41;11.60;;;2.65;;
42704;SDS011;28342;42.594;23.414;2023-05-17T01:02:11;12.68;;;4.13;;
42704;SDS011;28342;42.594;23.414;2023-05-17T01:04:36;12.02;;;5.45;;
42704;SDS011;28342;42.594;23.414;2023-05-17T01:07:02;14.35;;;6.75;;
42704;SDS011;28342;42.594;23.414;2023-05-17T01:09:28;13.55;;;5.32;;
42704;SDS011;28342;42.594;23.414;2023-05-17T01:20:02;14.15;;;5.75;;
42704;SDS011;28342;42.594;23.414;2023-05-17T01:22:31;10.20;;;5.10;;
42704;SDS011;28342;42.594;23.414;2023-05-17T01:27:51;10.48;;;4.07;;
42704;SDS011;28342;42.594;23.414;2023-05-17T01:30:19;18.15;;;5.20;;
42704;SDS011;28342;42.594;23.414;2023-05-17T01:32:48;13.07;;;5.25;;
42704;SDS011;28342;42.594;23.414;2023-05-17T01:35:14;8.05;;;5.15;;
42704;SDS011;28342;42.594;23.414;2023-05-17T01:37:40;15.10;;;6.68;;
42704;SDS011;28342;42.594;23.414;2023-05-17T01:40:06;13.02;;;4.38;;
42704;SDS011;28342;42.594;23.414;2023-05-17T01:42:33;17.17;;;4.95;;
42704;SDS011;28342;42.594;23.414;2023-05-17T01:45:11;12.00;;;5.38;;
42704;SDS011;28342;42.594;23.414;2023-05-17T01:47:49;13.80;;;5.30;;
42704;SDS011;28342;42.594;23.414;2023-05-17T01:50:26;14.82;;;5.28;;
42704;SDS011;28342;42.594;23.414;2023-05-17T01:53:17;13.15;;;5.28;;
42704;SDS011;28342;42.594;23.414;2023-05-17T01:56:01;10.40;;;4.65;;
42704;SDS011;28342;42.594;23.414;2023-05-17T01:58:31;12.00;;;4.60;;
42704;SDS011;28342;42.594;23.414;2023-05-17T02:01:03;16.13;;;5.75;;
42704;SDS011;28342;42.594;23.414;2023-05-17T02:03:30;11.32;;;5.55;;
42704;SDS011;28342;42.594;23.414;2023-05-17T02:05:55;12.50;;;5.90;;
42704;SDS011;28342;42.594;23.414;2023-05-17T02:08:21;9.13;;;4.60;;
42704;SDS011;28342;42.594;23.414;2023-05-17T02:10:47;10.98;;;4.57;;
42704;SDS011;28342;42.594;23.414;2023-05-17T02:13:12;11.27;;;4.85;;
42704;SDS011;28342;42.594;23.414;2023-05-17T02:15:38;14.80;;;5.30;;
42704;SDS011;28342;42.594;23.414;2023-05-17T02:18:03;11.07;;;4.80;;
42704;SDS011;28342;42.594;23.414;2023-05-17T02:20:29;10.57;;;5.47;;
42704;SDS011;28342;42.594;23.414;2023-05-17T02:22:54;13.18;;;5.75;;
42704;SDS011;28342;42.594;23.414;2023-05-17T02:25:19;10.95;;;5.32;;
42704;SDS011;28342;42.594;23.414;2023-05-17T02:27:45;14.77;;;5.15;;
42704;SDS011;28342;42.594;23.414;2023-05-17T02:30:10;9.77;;;5.32;;
42704;SDS011;28342;42.594;23.414;2023-05-17T02:32:38;11.27;;;5.28;;
42704;SDS011;28342;42.594;23.414;2023-05-17T02:35:03;11.20;;;6.18;;
42704;SDS011;28342;42.594;23.414;2023-05-17T02:37:29;15.00;;;6.72;;
42704;SDS011;28342;42.594;23.414;2023-05-17T02:39:55;14.70;;;7.38;;
42704;SDS011;28342;42.594;23.414;2023-05-17T02:42:20;11.73;;;6.50;;
42704;SDS011;28342;42.594;23.414;2023-05-17T02:44:45;12.20;;;6.18;;
42704;SDS011;28342;42.594;23.414;2023-05-17T02:47:12;9.07;;;5.85;;
42704;SDS011;28342;42.594;23.414;2023-05-17T02:49:38;14.68;;;6.13;;
42704;SDS011;28342;42.594;23.414;2023-05-17T02:52:03;11.40;;;5.68;;
42704;SDS011;28342;42.594;23.414;2023-05-17T02:54:29;11.80;;;6.35;;
42704;SDS011;28342;42.594;23.414;2023-05-17T02:56:54;11.05;;;6.55;;
42704;SDS011;28342;42.594;23.414;2023-05-17T02:59:20;18.85;;;8.25;;
42704;SDS011;28342;42.594;23.414;2023-05-17T03:01:46;12.70;;;8.05;;
42704;SDS011;28342;42.594;23.414;2023-05-17T03:04:12;22.00;;;8.93;;
42704;SDS011;28342;42.594;23.414;2023-05-17T03:06:38;16.60;;;8.65;;
42704;SDS011;28342;42.594;23.414;2023-05-17T03:09:03;16.88;;;8.82;;
42704;SDS011;28342;42.594;23.414;2023-05-17T03:11:29;15.95;;;8.52;;
42704;SDS011;28342;42.594;23.414;2023-05-17T03:13:54;15.60;;;8.40;;
42704;SDS011;28342;42.594;23.414;2023-05-17T03:16:20;16.08;;;8.63;;
42704;SDS011;28342;42.594;23.414;2023-05-17T03:18:45;19.65;;;8.85;;
42704;SDS011;28342;42.594;23.414;2023-05-17T03:21:11;22.77;;;11.65;;
42704;SDS011;28342;42.594;23.414;2023-05-17T03:23:36;16.75;;;9.15;;
42704;SDS011;28342;42.594;23.414;2023-05-17T03:26:01;21.83;;;10.45;;
42704;SDS011;28342;42.594;23.414;2023-05-17T03:28:27;17.42;;;9.88;;
42704;SDS011;28342;42.594;23.414;2023-05-17T03:30:52;22.48;;;12.02;;
42704;SDS011;28342;42.594;23.414;2023-05-17T03:33:18;20.63;;;11.90;;
42704;SDS011;28342;42.594;23.414;2023-05-17T03:35:44;23.95;;;11.70;;
42704;SDS011;28342;42.594;23.414;2023-05-17T03:38:11;23.05;;;13.02;;
42704;SDS011;28342;42.594;23.414;2023-05-17T03:40:36;23.95;;;11.82;;
42704;SDS011;28342;42.594;23.414;2023-05-17T03:43:02;23.08;;;11.27;;
42704;SDS011;28342;42.594;23.414;2023-05-17T03:45:27;25.05;;;10.38;;
42704;SDS011;28342;42.594;23.414;2023-05-17T03:47:53;25.55;;;12.05;;
42704;SDS011;28342;42.594;23.414;2023-05-17T03:50:18;19.92;;;11.10;;
42704;SDS011;28342;42.594;23.414;2023-05-17T03:52:44;25.27;;;11.35;;
42704;SDS011;28342;42.594;23.414;2023-05-17T03:55:10;23.90;;;11.77;;
42704;SDS011;28342;42.594;23.414;2023-05-17T03:57:35;19.65;;;10.70;;
42704;SDS011;28342;42.594;23.414;2023-05-17T04:00:01;23.98;;;11.57;;
42704;SDS011;28342;42.594;23.414;2023-05-17T04:02:27;20.88;;;10.52;;
42704;SDS011;28342;42.594;23.414;2023-05-17T04:04:52;18.77;;;11.65;;
42704;SDS011;28342;42.594;23.414;2023-05-17T04:07:18;18.25;;;10.73;;
42704;SDS011;28342;42.594;23.414;2023-05-17T04:09:44;20.65;;;11.82;;
42704;SDS011;28342;42.594;23.414;2023-05-17T04:12:09;23.00;;;12.93;;
42704;SDS011;28342;42.594;23.414;2023-05-17T04:14:35;21.98;;;11.00;;
42704;SDS011;28342;42.594;23.414;2023-05-17T04:17:02;28.45;;;13.88;;
42704;SDS011;28342;42.594;23.414;2023-05-17T04:19:28;25.70;;;13.05;;
42704;SDS011;28342;42.594;23.414;2023-05-17T04:21:53;23.67;;;12.25;;
42704;SDS011;28342;42.594;23.414;2023-05-17T04:24:19;24.10;;;12.05;;
42704;SDS011;28342;42.594;23.414;2023-05-17T04:26:44;30.08;;;13.27;;
42704;SDS011;28342;42.594;23.414;2023-05-17T04:32:31;21.42;;;13.18;;
42704;SDS011;28342;42.594;23.414;2023-05-17T04:34:58;20.48;;;11.93;;
42704;SDS011;28342;42.594;23.414;2023-05-17T04:37:24;26.52;;;13.23;;
42704;SDS011;28342;42.594;23.414;2023-05-17T04:39:49;21.77;;;12.60;;
42704;SDS011;28342;42.594;23.414;2023-05-17T04:42:16;24.55;;;13.05;;
42704;SDS011;28342;42.594;23.414;2023-05-17T04:44:42;21.92;;;11.88;;
42704;SDS011;28342;42.594;23.414;2023-05-17T04:47:07;24.30;;;13.48;;
42704;SDS011;28342;42.594;23.414;2023-05-17T04:49:33;19.60;;;11.70;;
42704;SDS011;28342;42.594;23.414;2023-05-17T04:51:58;21.88;;;12.02;;
42704;SDS011;28342;42.594;23.414;2023-05-17T04:54:24;22.15;;;11.73;;
42704;SDS011;28342;42.594;23.414;2023-05-17T04:56:50;24.35;;;11.63;;
42704;SDS011;28342;42.594;23.414;2023-05-17T04:59:15;18.95;;;11.95;;
42704;SDS011;28342;42.594;23.414;2023-05-17T05:01:41;19.77;;;10.63;;
42704;SDS011;28342;42.594;23.414;2023-05-17T05:04:06;21.38;;;11.80;;
42704;SDS011;28342;42.594;23.414;2023-05-17T05:06:32;18.58;;;11.45;;
42704;SDS011;28342;42.594;23.414;2023-05-17T05:09:01;20.75;;;11.00;;
42704;SDS011;28342;42.594;23.414;2023-05-17T05:11:28;18.98;;;11.63;;
42704;SDS011;28342;42.594;23.414;2023-05-17T05:13:53;21.23;;;12.88;;
42704;SDS011;28342;42.594;23.414;2023-05-17T05:16:20;21.70;;;12.30;;
42704;SDS011;28342;42.594;23.414;2023-05-17T05:18:45;21.98;;;10.30;;
42704;SDS011;28342;42.594;23.414;2023-05-17T05:21:10;21.20;;;11.07;;
42704;SDS011;28342;42.594;23.414;2023-05-17T05:23:36;20.17;;;9.02;;
42704;SDS011;28342;42.594;23.414;2023-05-17T05:26:01;18.33;;;10.35;;
42704;SDS011;28342;42.594;23.414;2023-05-17T05:28:28;16.02;;;10.27;;
42704;SDS011;28342;42.594;23.414;2023-05-17T05:30:59;19.33;;;10.73;;
42704;SDS011;28342;42.594;23.414;2023-05-17T05:33:25;17.77;;;10.82;;
42704;SDS011;28342;42.594;23.414;2023-05-17T05:35:51;14.63;;;8.50;;
42704;SDS011;28342;42.594;23.414;2023-05-17T05:38:17;17.88;;;10.43;;
42704;SDS011;28342;42.594;23.414;2023-05-17T05:40:44;17.30;;;9.43;;
42704;SDS011;28342;42.594;23.414;2023-05-17T05:43:10;21.48;;;9.57;;
42704;SDS011;28342;42.594;23.414;2023-05-17T05:45:36;19.48;;;9.55;;
42704;SDS011;28342;42.594;23.414;2023-05-17T05:48:01;14.60;;;8.23;;
42704;SDS011;28342;42.594;23.414;2023-05-17T05:50:29;17.13;;;9.43;;
42704;SDS011;28342;42.594;23.414;2023-05-17T05:52:54;14.27;;;8.50;;
42704;SDS011;28342;42.594;23.414;2023-05-17T05:55:23;17.17;;;9.13;;
42704;SDS011;28342;42.594;23.414;2023-05-17T05:57:48;15.80;;;8.95;;
42704;SDS011;28342;42.594;23.414;2023-05-17T06:00:14;15.48;;;8.65;;
42704;SDS011;28342;42.594;23.414;2023-05-17T06:02:39;18.27;;;8.43;;
42704;SDS011;28342;42.594;23.414;2023-05-17T06:05:05;17.50;;;8.85;;
42704;SDS011;28342;42.594;23.414;2023-05-17T06:07:31;15.48;;;7.65;;
42704;SDS011;28342;42.594;23.414;2023-05-17T06:09:56;15.50;;;9.45;;
42704;SDS011;28342;42.594;23.414;2023-05-17T06:12:22;14.45;;;8.52;;
42704;SDS011;28342;42.594;23.414;2023-05-17T06:14:47;18.23;;;8.93;;
42704;SDS011;28342;42.594;23.414;2023-05-17T06:17:12;18.08;;;9.65;;
42704;SDS011;28342;42.594;23.414;2023-05-17T06:19:38;15.18;;;8.88;;
42704;SDS011;28342;42.594;23.414;2023-05-17T06:22:03;12.50;;;7.90;;
42704;SDS011;28342;42.594;23.414;2023-05-17T06:24:29;17.60;;;9.00;;
42704;SDS011;28342;42.594;23.414;2023-05-17T06:26:54;12.48;;;7.55;;
42704;SDS011;28342;42.594;23.414;2023-05-17T06:29:20;16.67;;;7.78;;
42704;SDS011;28342;42.594;23.414;2023-05-17T06:31:45;15.65;;;8.00;;
42704;SDS011;28342;42.594;23.414;2023-05-17T06:34:11;13.15;;;8.25;;
42704;SDS011;28342;42.594;23.414;2023-05-17T06:36:36;15.25;;;8.15;;
42704;SDS011;28342;42.594;23.414;2023-05-17T06:39:02;15.38;;;8.48;;
42704;SDS011;28342;42.594;23.414;2023-05-17T06:41:31;13.75;;;7.72;;
42704;SDS011;28342;42.594;23.414;2023-05-17T06:43:58;12.73;;;7.30;;
42704;SDS011;28342;42.594;23.414;2023-05-17T06:46:25;16.92;;;8.38;;
42704;SDS011;28342;42.594;23.414;2023-05-17T06:48:52;16.23;;;7.60;;
42704;SDS011;28342;42.594;23.414;2023-05-17T06:51:18;18.33;;;7.60;;
42704;SDS011;28342;42.594;23.414;2023-05-17T06:53:43;14.88;;;8.40;;
42704;SDS011;28342;42.594;23.414;2023-05-17T06:56:09;12.73;;;8.02;;
42704;SDS011;28342;42.594;23.414;2023-05-17T06:58:34;14.40;;;7.95;;
42704;SDS011;28342;42.594;23.414;2023-05-17T07:01:00;17.58;;;9.20;;
42704;SDS011;28342;42.594;23.414;2023-05-17T07:03:26;15.27;;;7.70;;
42704;SDS011;28342;42.594;23.414;2023-05-17T07:05:51;14.13;;;7.70;;
42704;SDS011;28342;42.594;23.414;2023-05-17T07:08:17;17.98;;;8.63;;
42704;SDS011;28342;42.594;23.414;2023-05-17T07:10:42;17.98;;;8.65;;
42704;SDS011;28342;42.594;23.414;2023-05-17T07:13:08;19.40;;;9.25;;
42704;SDS011;28342;42.594;23.414;2023-05-17T07:15:34;13.52;;;8.50;;
42704;SDS011;28342;42.594;23.414;2023-05-17T07:18:00;17.00;;;9.15;;
42704;SDS011;28342;42.594;23.414;2023-05-17T07:20:25;17.48;;;8.38;;
42704;SDS011;28342;42.594;23.414;2023-05-17T07:22:51;17.25;;;8.25;;
42704;SDS011;28342;42.594;23.414;2023-05-17T07:25:17;16.10;;;8.55;;
42704;SDS011;28342;42.594;23.414;2023-05-17T07:27:45;15.77;;;8.13;;
42704;SDS011;28342;42.594;23.414;2023-05-17T07:30:10;16.65;;;8.93;;
42704;SDS011;28342;42.594;23.414;2023-05-17T07:32:36;15.45;;;9.13;;
42704;SDS011;28342;42.594;23.414;2023-05-17T07:35:02;18.23;;;8.98;;
42704;SDS011;28342;42.594;23.414;2023-05-17T07:37:27;11.90;;;7.93;;
42704;SDS011;28342;42.594;23.414;2023-05-17T07:39:53;15.75;;;8.50;;
42704;SDS011;28342;42.594;23.414;2023-05-17T07:42:18;17.50;;;8.57;;
42704;SDS011;28342;42.594;23.414;2023-05-17T07:44:45;15.10;;;7.95;;
42704;SDS011;28342;42.594;23.414;2023-05-17T07:47:12;15.57;;;8.52;;
42704;SDS011;28342;42.594;23.414;2023-05-17T07:49:39;19.15;;;9.02;;
42704;SDS011;28342;42.594;23.414;2023-05-17T07:52:06;17.23;;;7.57;;
42704;SDS011;28342;42.594;23.414;2023-05-17T07:54:37;14.00;;;7.68;;
42704;SDS011;28342;42.594;23.414;2023-05-17T07:57:04;13.98;;;8.00;;
42704;SDS011;28342;42.594;23.414;2023-05-17T07:59:30;18.42;;;8.57;;
42704;SDS011;28342;42.594;23.414;2023-05-17T08:01:55;17.13;;;8.32;;
42704;SDS011;28342;42.594;23.414;2023-05-17T08:04:22;13.95;;;7.60;;
42704;SDS011;28342;42.594;23.414;2023-05-17T08:06:48;14.13;;;8.75;;
42704;SDS011;28342;42.594;23.414;2023-05-17T08:09:14;21.40;;;8.60;;
42704;SDS011;28342;42.594;23.414;2023-05-17T08:11:41;13.38;;;7.32;;
42704;SDS011;28342;42.594;23.414;2023-05-17T08:14:27;13.63;;;7.15;;
42704;SDS011;28342;42.594;23.414;2023-05-17T08:16:54;15.43;;;7.28;;
42704;SDS011;28342;42.594;23.414;2023-05-17T08:19:20;13.10;;;7.03;;
42704;SDS011;28342;42.594;23.414;2023-05-17T08:21:52;15.02;;;7.95;;
42704;SDS011;28342;42.594;23.414;2023-05-17T08:25:12;14.80;;;7.22;;
42704;SDS011;28342;42.594;23.414;2023-05-17T08:27:48;14.75;;;7.80;;
42704;SDS011;28342;42.594;23.414;2023-05-17T08:30:24;18.77;;;7.28;;
42704;SDS011;28342;42.594;23.414;2023-05-17T08:33:09;15.20;;;7.03;;
42704;SDS011;28342;42.594;23.414;2023-05-17T08:35:53;15.70;;;7.65;;
42704;SDS011;28342;42.594;23.414;2023-05-17T08:38:28;16.55;;;7.47;;
42704;SDS011;28342;42.594;23.414;2023-05-17T08:41:02;19.35;;;7.60;;
42704;SDS011;28342;42.594;23.414;2023-05-17T08:46:30;13.82;;;7.38;;
42704;SDS011;28342;42.594;23.414;2023-05-17T08:49:00;18.63;;;8.05;;
42704;SDS011;28342;42.594;23.414;2023-05-17T08:51:35;15.82;;;6.53;;
42704;SDS011;28342;42.594;23.414;2023-05-17T08:54:41;16.58;;;7.65;;
42704;SDS011;28342;42.594;23.414;2023-05-17T08:57:16;14.77;;;6.72;;
42704;SDS011;28342;42.594;23.414;2023-05-17T08:59:53;13.70;;;6.18;;
42704;SDS011;28342;42.594;23.414;2023-05-17T09:02:20;12.63;;;6.70;;
42704;SDS011;28342;42.594;23.414;2023-05-17T09:04:49;12.38;;;7.20;;
42704;SDS011;28342;42.594;23.414;2023-05-17T09:07:34;14.63;;;6.47;;
42704;SDS011;28342;42.594;23.414;2023-05-17T09:10:21;16.02;;;7.10;;
42704;SDS011;28342;42.594;23.414;2023-05-17T09:13:16;14.50;;;6.32;;
42704;SDS011;28342;42.594;23.414;2023-05-17T09:16:14;13.77;;;5.75;;
42704;SDS011;28342;42.594;23.414;2023-05-17T09:21:47;46.25;;;31.77;;
42704;SDS011;28342;42.594;23.414;2023-05-17T09:24:28;19.52;;;11.85;;
42704;SDS011;28342;42.594;23.414;2023-05-17T09:27:05;13.80;;;7.50;;
42704;SDS011;28342;42.594;23.414;2023-05-17T09:29:50;11.35;;;6.53;;
42704;SDS011;28342;42.594;23.414;2023-05-17T09:32:22;10.05;;;5.90;;
42704;SDS011;28342;42.594;23.414;2023-05-17T09:34:49;11.52;;;5.80;;
42704;SDS011;28342;42.594;23.414;2023-05-17T09:37:18;14.63;;;5.38;;
42704;SDS011;28342;42.594;23.414;2023-05-17T09:39:45;12.05;;;5.75;;
42704;SDS011;28342;42.594;23.414;2023-05-17T09:42:12;11.48;;;5.95;;
42704;SDS011;28342;42.594;23.414;2023-05-17T09:44:49;19.90;;;6.22;;
42704;SDS011;28342;42.594;23.414;2023-05-17T09:47:27;16.85;;;6.10;;
42704;SDS011;28342;42.594;23.414;2023-05-17T09:49:57;13.60;;;6.50;;
42704;SDS011;28342;42.594;23.414;2023-05-17T09:52:24;13.43;;;6.53;;
42704;SDS011;28342;42.594;23.414;2023-05-17T09:54:56;11.38;;;6.10;;
42704;SDS011;28342;42.594;23.414;2023-05-17T09:57:22;18.95;;;7.82;;
42704;SDS011;28342;42.594;23.414;2023-05-17T09:59:50;16.67;;;6.53;;
42704;SDS011;28342;42.594;23.414;2023-05-17T10:02:19;11.85;;;6.03;;
42704;SDS011;28342;42.594;23.414;2023-05-17T10:04:48;12.07;;;6.18;;
42704;SDS011;28342;42.594;23.414;2023-05-17T10:07:17;13.32;;;5.93;;
42704;SDS011;28342;42.594;23.414;2023-05-17T10:09:45;12.27;;;6.10;;
42704;SDS011;28342;42.594;23.414;2023-05-17T10:12:13;12.45;;;5.53;;
42704;SDS011;28342;42.594;23.414;2023-05-17T10:14:41;14.65;;;6.80;;
42704;SDS011;28342;42.594;23.414;2023-05-17T10:17:08;14.48;;;6.25;;
42704;SDS011;28342;42.594;23.414;2023-05-17T10:19:35;12.10;;;5.90;;
42704;SDS011;28342;42.594;23.414;2023-05-17T10:22:01;15.07;;;5.35;;
42704;SDS011;28342;42.594;23.414;2023-05-17T10:24:28;9.77;;;5.90;;
42704;SDS011;28342;42.594;23.414;2023-05-17T10:26:56;14.73;;;6.30;;
42704;SDS011;28342;42.594;23.414;2023-05-17T10:29:21;14.48;;;6.55;;
42704;SDS011;28342;42.594;23.414;2023-05-17T10:31:48;12.52;;;5.22;;
42704;SDS011;28342;42.594;23.414;2023-05-17T10:34:17;17.23;;;5.97;;
42704;SDS011;28342;42.594;23.414;2023-05-17T10:36:44;14.88;;;5.97;;
42704;SDS011;28342;42.594;23.414;2023-05-17T10:39:10;10.82;;;5.00;;
42704;SDS011;28342;42.594;23.414;2023-05-17T10:41:39;8.85;;;5.20;;
42704;SDS011;28342;42.594;23.414;2023-05-17T10:44:07;13.88;;;5.13;;
42704;SDS011;28342;42.594;23.414;2023-05-17T10:46:36;11.80;;;4.97;;
42704;SDS011;28342;42.594;23.414;2023-05-17T10:49:02;10.27;;;5.05;;
42704;SDS011;28342;42.594;23.414;2023-05-17T10:51:30;11.10;;;5.25;;
42704;SDS011;28342;42.594;23.414;2023-05-17T10:56:39;8.30;;;4.47;;
42704;SDS011;28342;42.594;23.414;2023-05-17T10:59:20;16.70;;;5.75;;
42704;SDS011;28342;42.594;23.414;2023-05-17T11:01:57;11.00;;;4.68;;
42704;SDS011;28342;42.594;23.414;2023-05-17T11:04:40;9.85;;;4.38;;
42704;SDS011;28342;42.594;23.414;2023-05-17T11:09:43;11.32;;;4.93;;
42704;SDS011;28342;42.594;23.414;2023-05-17T11:12:09;8.70;;;3.97;;
42704;SDS011;28342;42.594;23.414;2023-05-17T11:14:51;8.52;;;4.07;;
42704;SDS011;28342;42.594;23.414;2023-05-17T11:17:35;16.35;;;5.20;;
42704;SDS011;28342;42.594;23.414;2023-05-17T11:20:07;8.95;;;4.40;;
42704;SDS011;28342;42.594;23.414;2023-05-17T11:22:41;8.18;;;4.85;;
42704;SDS011;28342;42.594;23.414;2023-05-17T11:25:11;7.03;;;4.18;;
42704;SDS011;28342;42.594;23.414;2023-05-17T11:27:42;12.65;;;3.95;;
42704;SDS011;28342;42.594;23.414;2023-05-17T11:32:49;7.85;;;4.55;;
42704;SDS011;28342;42.594;23.414;2023-05-17T11:35:17;9.50;;;4.30;;
42704;SDS011;28342;42.594;23.414;2023-05-17T11:37:43;10.50;;;4.78;;
42704;SDS011;28342;42.594;23.414;2023-05-17T11:40:09;13.05;;;4.35;;
42704;SDS011;28342;42.594;23.414;2023-05-17T11:42:37;12.27;;;4.40;;
42704;SDS011;28342;42.594;23.414;2023-05-17T11:45:03;10.27;;;4.20;;
42704;SDS011;28342;42.594;23.414;2023-05-17T11:47:30;10.18;;;3.88;;
42704;SDS011;28342;42.594;23.414;2023-05-17T11:50:01;11.68;;;4.93;;
42704;SDS011;28342;42.594;23.414;2023-05-17T11:52:29;8.57;;;3.67;;
42704;SDS011;28342;42.594;23.414;2023-05-17T11:54:58;8.32;;;3.88;;
42704;SDS011;28342;42.594;23.414;2023-05-17T11:57:31;9.50;;;4.53;;
42704;SDS011;28342;42.594;23.414;2023-05-17T11:59:58;9.45;;;3.85;;
42704;SDS011;28342;42.594;23.414;2023-05-17T12:02:30;11.30;;;4.13;;
42704;SDS011;28342;42.594;23.414;2023-05-17T12:04:56;16.38;;;4.55;;
42704;SDS011;28342;42.594;23.414;2023-05-17T12:07:23;15.43;;;4.82;;
42704;SDS011;28342;42.594;23.414;2023-05-17T12:09:52;12.45;;;5.20;;
42704;SDS011;28342;42.594;23.414;2023-05-17T12:12:18;11.35;;;4.50;;
42704;SDS011;28342;42.594;23.414;2023-05-17T12:14:46;11.50;;;4.65;;
42704;SDS011;28342;42.594;23.414;2023-05-17T12:17:17;14.43;;;5.53;;
42704;SDS011;28342;42.594;23.414;2023-05-17T12:19:55;16.35;;;5.38;;
42704;SDS011;28342;42.594;23.414;2023-05-17T12:22:32;11.13;;;4.50;;
42704;SDS011;28342;42.594;23.414;2023-05-17T12:24:57;12.13;;;4.53;;
42704;SDS011;28342;42.594;23.414;2023-05-17T12:27:24;7.65;;;4.50;;
42704;SDS011;28342;42.594;23.414;2023-05-17T12:29:53;7.45;;;4.35;;
42704;SDS011;28342;42.594;23.414;2023-05-17T12:32:20;10.52;;;4.70;;
42704;SDS011;28342;42.594;23.414;2023-05-17T12:34:45;7.88;;;4.70;;
42704;SDS011;28342;42.594;23.414;2023-05-17T12:37:13;12.80;;;5.05;;
42704;SDS011;28342;42.594;23.414;2023-05-17T12:39:39;9.88;;;4.57;;
42704;SDS011;28342;42.594;23.414;2023-05-17T12:42:04;18.10;;;5.28;;
42704;SDS011;28342;42.594;23.414;2023-05-17T12:44:33;9.65;;;4.90;;
42704;SDS011;28342;42.594;23.414;2023-05-17T12:47:03;12.48;;;5.95;;
42704;SDS011;28342;42.594;23.414;2023-05-17T12:49:36;14.35;;;4.75;;
42704;SDS011;28342;42.594;23.414;2023-05-17T12:52:02;14.00;;;5.32;;
42704;SDS011;28342;42.594;23.414;2023-05-17T12:54:29;16.73;;;5.55;;
42704;SDS011;28342;42.594;23.414;2023-05-17T12:56:55;20.58;;;6.47;;
42704;SDS011;28342;42.594;23.414;2023-05-17T12:59:21;17.38;;;5.50;;
42704;SDS011;28342;42.594;23.414;2023-05-17T13:01:55;11.13;;;4.93;;
42704;SDS011;28342;42.594;23.414;2023-05-17T13:04:28;11.93;;;5.10;;
42704;SDS011;28342;42.594;23.414;2023-05-17T13:06:58;11.27;;;4.65;;
42704;SDS011;28342;42.594;23.414;2023-05-17T13:09:26;12.48;;;5.13;;
42704;SDS011;28342;42.594;23.414;2023-05-17T13:11:55;8.60;;;4.97;;
42704;SDS011;28342;42.594;23.414;2023-05-17T13:17:04;9.95;;;4.38;;
42704;SDS011;28342;42.594;23.414;2023-05-17T13:19:33;13.80;;;4.95;;
42704;SDS011;28342;42.594;23.414;2023-05-17T13:22:02;12.93;;;5.13;;
42704;SDS011;28342;42.594;23.414;2023-05-17T13:24:30;16.02;;;5.90;;
42704;SDS011;28342;42.594;23.414;2023-05-17T13:26:59;10.98;;;5.15;;
42704;SDS011;28342;42.594;23.414;2023-05-17T13:29:28;18.23;;;5.35;;
42704;SDS011;28342;42.594;23.414;2023-05-17T13:31:54;11.55;;;4.75;;
42704;SDS011;28342;42.594;23.414;2023-05-17T13:34:24;10.52;;;4.47;;
42704;SDS011;28342;42.594;23.414;2023-05-17T13:36:49;13.23;;;4.97;;
42704;SDS011;28342;42.594;23.414;2023-05-17T13:39:15;11.02;;;4.22;;
42704;SDS011;28342;42.594;23.414;2023-05-17T13:41:43;11.63;;;4.95;;
42704;SDS011;28342;42.594;23.414;2023-05-17T13:44:10;13.85;;;4.75;;
42704;SDS011;28342;42.594;23.414;2023-05-17T13:46:36;10.88;;;5.28;;
42704;SDS011;28342;42.594;23.414;2023-05-17T13:49:03;10.40;;;5.18;;
42704;SDS011;28342;42.594;23.414;2023-05-17T13:51:32;10.40;;;4.70;;
42704;SDS011;28342;42.594;23.414;2023-05-17T13:54:05;11.25;;;4.68;;
42704;SDS011;28342;42.594;23.414;2023-05-17T13:56:31;12.85;;;5.07;;
42704;SDS011;28342;42.594;23.414;2023-05-17T13:58:57;9.10;;;4.40;;
42704;SDS011;28342;42.594;23.414;2023-05-17T14:01:24;11.27;;;4.00;;
42704;SDS011;28342;42.594;23.414;2023-05-17T14:03:50;8.93;;;4.90;;
42704;SDS011;28342;42.594;23.414;2023-05-17T14:06:18;9.88;;;4.30;;
42704;SDS011;28342;42.594;23.414;2023-05-17T14:08:45;12.20;;;5.07;;
42704;SDS011;28342;42.594;23.414;2023-05-17T14:11:12;12.23;;;4.55;;
42704;SDS011;28342;42.594;23.414;2023-05-17T14:13:37;8.30;;;4.18;;
42704;SDS011;28342;42.594;23.414;2023-05-17T14:16:03;9.45;;;4.70;;
42704;SDS011;28342;42.594;23.414;2023-05-17T14:18:29;7.85;;;4.78;;
42704;SDS011;28342;42.594;23.414;2023-05-17T14:20:56;9.23;;;4.77;;
42704;SDS011;28342;42.594;23.414;2023-05-17T14:23:22;11.27;;;4.55;;
42704;SDS011;28342;42.594;23.414;2023-05-17T14:25:48;11.07;;;5.30;;
42704;SDS011;28342;42.594;23.414;2023-05-17T14:28:16;13.15;;;5.22;;
42704;SDS011;28342;42.594;23.414;2023-05-17T14:30:57;10.93;;;4.55;;
42704;SDS011;28342;42.594;23.414;2023-05-17T14:33:35;10.85;;;4.43;;
42704;SDS011;28342;42.594;23.414;2023-05-17T14:36:02;8.63;;;4.70;;
42704;SDS011;28342;42.594;23.414;2023-05-17T14:38:58;10.43;;;3.95;;
42704;SDS011;28342;42.594;23.414;2023-05-17T14:41:28;7.20;;;3.77;;
42704;SDS011;28342;42.594;23.414;2023-05-17T14:44:57;6.18;;;3.70;;
42704;SDS011;28342;42.594;23.414;2023-05-17T14:47:54;8.00;;;3.40;;
42704;SDS011;28342;42.594;23.414;2023-05-17T14:53:22;9.70;;;3.05;;
42704;SDS011;28342;42.594;23.414;2023-05-17T14:56:25;8.18;;;3.83;;
42704;SDS011;28342;42.594;23.414;2023-05-17T14:58:51;9.32;;;4.03;;
42704;SDS011;28342;42.594;23.414;2023-05-17T15:01:18;14.43;;;4.03;;
42704;SDS011;28342;42.594;23.414;2023-05-17T15:03:43;13.32;;;4.40;;